KDMO/DMO METAR and TAF weather

Enter ICAO airport designator
Station Type Date Time Source
KDMO METAR 2020/07/09 07:53 UTC NOAA

KDMO 090753Z AUTO 20006KT 10SM CLR 25/21 A2987 RMK AO2 SLP103 T02500211


Station Type Date Time Source
KDMO Decoded METAR 2020/07/09 07:53 UTC NOAA

SEDALIA MEMORIAL AIRPORT, MO, United States (KDMO) 38-43N 93-10W 274M
Jul 09, 2020 - 03:53 AM EDT / 2020.07.09 0753 UTC
Wind: from the SSW (200 degrees) at 7 MPH (6 KT):0
Visibility: 10 mile(s):0
Sky conditions: clear
Temperature: 77.0 F (25.0 C)
Dew Point: 70.0 F (21.1 C)
Relative Humidity: 78%
Pressure (altimeter): 29.87 in. Hg (1011 hPa)
ob: KDMO 090753Z AUTO 20006KT 10SM CLR 25/21 A2987 RMK AO2 SLP103 T02500211
cycle: 8

Station Type Date Time Source
KDMO TAF UTC NOAA

Error!

Example: see airport list